sensor_id;sensor_type;location;lat;lon;timestamp;P1;durP1;ratioP1;P2;durP2;ratioP2
16440;SDS011;8330;-33.858;151.184;2023-06-22T00:02:19;12.48;;;4.25;;
16440;SDS011;8330;-33.858;151.184;2023-06-22T00:04:50;10.77;;;3.58;;
16440;SDS011;8330;-33.858;151.184;2023-06-22T00:07:21;10.00;;;3.92;;
16440;SDS011;8330;-33.858;151.184;2023-06-22T00:09:57;12.27;;;4.18;;
16440;SDS011;8330;-33.858;151.184;2023-06-22T00:12:28;9.70;;;4.25;;
16440;SDS011;8330;-33.858;151.184;2023-06-22T00:14:59;6.85;;;3.83;;
16440;SDS011;8330;-33.858;151.184;2023-06-22T00:17:34;12.02;;;4.50;;
16440;SDS011;8330;-33.858;151.184;2023-06-22T00:20:05;11.23;;;3.55;;
16440;SDS011;8330;-33.858;151.184;2023-06-22T00:22:37;7.63;;;3.53;;
16440;SDS011;8330;-33.858;151.184;2023-06-22T00:25:11;6.72;;;3.67;;
16440;SDS011;8330;-33.858;151.184;2023-06-22T00:27:44;11.75;;;3.30;;
16440;SDS011;8330;-33.858;151.184;2023-06-22T00:30:15;5.32;;;3.00;;
16440;SDS011;8330;-33.858;151.184;2023-06-22T00:32:49;9.35;;;3.08;;
16440;SDS011;8330;-33.858;151.184;2023-06-22T00:35:20;6.95;;;2.70;;
16440;SDS011;8330;-33.858;151.184;2023-06-22T00:37:55;6.70;;;3.00;;
16440;SDS011;8330;-33.858;151.184;2023-06-22T00:40:29;6.28;;;2.60;;
16440;SDS011;8330;-33.858;151.184;2023-06-22T00:43:02;6.60;;;2.90;;
16440;SDS011;8330;-33.858;151.184;2023-06-22T00:45:35;4.65;;;2.90;;
16440;SDS011;8330;-33.858;151.184;2023-06-22T00:48:07;5.85;;;2.75;;
16440;SDS011;8330;-33.858;151.184;2023-06-22T00:50:39;6.88;;;2.80;;
16440;SDS011;8330;-33.858;151.184;2023-06-22T00:53:10;5.07;;;2.08;;
16440;SDS011;8330;-33.858;151.184;2023-06-22T00:55:47;6.50;;;2.25;;
16440;SDS011;8330;-33.858;151.184;2023-06-22T00:58:21;5.60;;;2.33;;
16440;SDS011;8330;-33.858;151.184;2023-06-22T01:00:53;7.95;;;2.30;;
16440;SDS011;8330;-33.858;151.184;2023-06-22T01:03:24;5.53;;;2.65;;
16440;SDS011;8330;-33.858;151.184;2023-06-22T01:05:56;4.38;;;2.40;;
16440;SDS011;8330;-33.858;151.184;2023-06-22T01:08:39;6.47;;;2.90;;
16440;SDS011;8330;-33.858;151.184;2023-06-22T01:11:18;6.47;;;2.58;;
16440;SDS011;8330;-33.858;151.184;2023-06-22T01:13:56;7.55;;;3.20;;
16440;SDS011;8330;-33.858;151.184;2023-06-22T01:16:33;11.60;;;3.13;;
16440;SDS011;8330;-33.858;151.184;2023-06-22T01:22:10;6.15;;;3.00;;
16440;SDS011;8330;-33.858;151.184;2023-06-22T01:24:48;9.45;;;3.40;;
16440;SDS011;8330;-33.858;151.184;2023-06-22T01:27:47;8.82;;;3.10;;
16440;SDS011;8330;-33.858;151.184;2023-06-22T01:30:30;7.93;;;3.00;;
16440;SDS011;8330;-33.858;151.184;2023-06-22T01:33:03;6.07;;;2.70;;
16440;SDS011;8330;-33.858;151.184;2023-06-22T01:35:36;4.15;;;2.65;;
16440;SDS011;8330;-33.858;151.184;2023-06-22T01:38:10;6.32;;;2.55;;
16440;SDS011;8330;-33.858;151.184;2023-06-22T01:40:42;3.80;;;2.03;;
16440;SDS011;8330;-33.858;151.184;2023-06-22T01:43:13;5.93;;;1.40;;
16440;SDS011;8330;-33.858;151.184;2023-06-22T01:45:48;2.67;;;1.50;;
16440;SDS011;8330;-33.858;151.184;2023-06-22T01:48:20;3.28;;;1.38;;
16440;SDS011;8330;-33.858;151.184;2023-06-22T01:50:52;2.15;;;1.80;;
16440;SDS011;8330;-33.858;151.184;2023-06-22T01:53:24;2.33;;;1.60;;
16440;SDS011;8330;-33.858;151.184;2023-06-22T01:55:56;2.35;;;1.33;;
16440;SDS011;8330;-33.858;151.184;2023-06-22T01:58:27;4.47;;;1.52;;
16440;SDS011;8330;-33.858;151.184;2023-06-22T02:01:05;2.05;;;1.42;;
16440;SDS011;8330;-33.858;151.184;2023-06-22T02:03:41;2.75;;;2.00;;
16440;SDS011;8330;-33.858;151.184;2023-06-22T02:06:17;4.53;;;2.10;;
16440;SDS011;8330;-33.858;151.184;2023-06-22T02:08:51;4.55;;;2.15;;
16440;SDS011;8330;-33.858;151.184;2023-06-22T02:11:26;5.95;;;1.60;;
16440;SDS011;8330;-33.858;151.184;2023-06-22T02:14:00;4.82;;;1.50;;
16440;SDS011;8330;-33.858;151.184;2023-06-22T02:16:34;1.95;;;1.20;;
16440;SDS011;8330;-33.858;151.184;2023-06-22T02:19:06;1.88;;;1.10;;
16440;SDS011;8330;-33.858;151.184;2023-06-22T02:21:38;1.95;;;1.45;;
16440;SDS011;8330;-33.858;151.184;2023-06-22T02:24:10;2.45;;;1.52;;
16440;SDS011;8330;-33.858;151.184;2023-06-22T02:26:41;3.92;;;1.27;;
16440;SDS011;8330;-33.858;151.184;2023-06-22T02:29:13;2.50;;;1.48;;
16440;SDS011;8330;-33.858;151.184;2023-06-22T02:31:46;2.28;;;1.50;;
16440;SDS011;8330;-33.858;151.184;2023-06-22T02:34:18;4.60;;;2.03;;
16440;SDS011;8330;-33.858;151.184;2023-06-22T02:36:52;7.57;;;4.25;;
16440;SDS011;8330;-33.858;151.184;2023-06-22T02:39:23;10.80;;;5.18;;
16440;SDS011;8330;-33.858;151.184;2023-06-22T02:41:55;7.38;;;3.50;;
16440;SDS011;8330;-33.858;151.184;2023-06-22T02:44:26;4.65;;;2.67;;
16440;SDS011;8330;-33.858;151.184;2023-06-22T02:46:59;6.53;;;3.05;;
16440;SDS011;8330;-33.858;151.184;2023-06-22T02:49:30;4.90;;;2.03;;
16440;SDS011;8330;-33.858;151.184;2023-06-22T02:52:02;4.95;;;2.22;;
16440;SDS011;8330;-33.858;151.184;2023-06-22T02:54:34;6.95;;;2.70;;
16440;SDS011;8330;-33.858;151.184;2023-06-22T02:57:05;3.83;;;2.20;;
16440;SDS011;8330;-33.858;151.184;2023-06-22T02:59:39;4.32;;;1.90;;
16440;SDS011;8330;-33.858;151.184;2023-06-22T03:02:12;2.47;;;2.03;;
16440;SDS011;8330;-33.858;151.184;2023-06-22T03:04:44;3.10;;;1.67;;
16440;SDS011;8330;-33.858;151.184;2023-06-22T03:07:15;1.80;;;1.50;;
16440;SDS011;8330;-33.858;151.184;2023-06-22T03:09:46;5.90;;;1.63;;
16440;SDS011;8330;-33.858;151.184;2023-06-22T03:12:17;2.45;;;1.50;;
16440;SDS011;8330;-33.858;151.184;2023-06-22T03:14:48;3.30;;;1.50;;
16440;SDS011;8330;-33.858;151.184;2023-06-22T03:17:22;6.90;;;1.70;;
16440;SDS011;8330;-33.858;151.184;2023-06-22T03:19:53;3.58;;;1.63;;
16440;SDS011;8330;-33.858;151.184;2023-06-22T03:22:24;2.58;;;1.40;;
16440;SDS011;8330;-33.858;151.184;2023-06-22T03:24:55;3.08;;;1.65;;
16440;SDS011;8330;-33.858;151.184;2023-06-22T03:27:26;3.13;;;1.52;;
16440;SDS011;8330;-33.858;151.184;2023-06-22T03:29:57;2.65;;;1.50;;
16440;SDS011;8330;-33.858;151.184;2023-06-22T03:32:38;3.85;;;1.58;;
16440;SDS011;8330;-33.858;151.184;2023-06-22T03:35:11;2.35;;;1.60;;
16440;SDS011;8330;-33.858;151.184;2023-06-22T03:37:42;4.78;;;1.63;;
16440;SDS011;8330;-33.858;151.184;2023-06-22T03:40:16;2.65;;;1.48;;
16440;SDS011;8330;-33.858;151.184;2023-06-22T03:42:47;4.75;;;1.90;;
16440;SDS011;8330;-33.858;151.184;2023-06-22T03:45:19;3.15;;;1.60;;
16440;SDS011;8330;-33.858;151.184;2023-06-22T03:47:55;4.15;;;3.08;;
16440;SDS011;8330;-33.858;151.184;2023-06-22T03:50:27;6.75;;;2.60;;
16440;SDS011;8330;-33.858;151.184;2023-06-22T03:52:58;4.50;;;1.80;;
16440;SDS011;8330;-33.858;151.184;2023-06-22T03:55:29;3.47;;;1.80;;
16440;SDS011;8330;-33.858;151.184;2023-06-22T03:58:01;6.10;;;1.85;;
16440;SDS011;8330;-33.858;151.184;2023-06-22T04:00:32;3.70;;;1.80;;
16440;SDS011;8330;-33.858;151.184;2023-06-22T04:03:07;2.83;;;1.42;;
16440;SDS011;8330;-33.858;151.184;2023-06-22T04:05:39;4.07;;;1.83;;
16440;SDS011;8330;-33.858;151.184;2023-06-22T04:08:10;4.22;;;1.88;;
16440;SDS011;8330;-33.858;151.184;2023-06-22T04:10:44;3.15;;;1.92;;
16440;SDS011;8330;-33.858;151.184;2023-06-22T04:13:15;2.75;;;1.70;;
16440;SDS011;8330;-33.858;151.184;2023-06-22T04:15:48;3.78;;;1.98;;
16440;SDS011;8330;-33.858;151.184;2023-06-22T04:18:22;4.22;;;1.70;;
16440;SDS011;8330;-33.858;151.184;2023-06-22T04:20:53;3.08;;;1.88;;
16440;SDS011;8330;-33.858;151.184;2023-06-22T04:23:24;5.55;;;1.92;;
16440;SDS011;8330;-33.858;151.184;2023-06-22T04:25:55;6.22;;;1.50;;
16440;SDS011;8330;-33.858;151.184;2023-06-22T04:28:27;4.78;;;1.40;;
16440;SDS011;8330;-33.858;151.184;2023-06-22T04:31:01;2.53;;;1.40;;
16440;SDS011;8330;-33.858;151.184;2023-06-22T04:33:34;3.15;;;1.50;;
16440;SDS011;8330;-33.858;151.184;2023-06-22T04:36:07;6.07;;;1.55;;
16440;SDS011;8330;-33.858;151.184;2023-06-22T04:38:39;4.00;;;1.70;;
16440;SDS011;8330;-33.858;151.184;2023-06-22T04:41:11;1.92;;;1.40;;
16440;SDS011;8330;-33.858;151.184;2023-06-22T04:43:51;3.13;;;1.35;;
16440;SDS011;8330;-33.858;151.184;2023-06-22T04:46:26;4.05;;;1.85;;
16440;SDS011;8330;-33.858;151.184;2023-06-22T04:48:59;5.60;;;1.45;;
16440;SDS011;8330;-33.858;151.184;2023-06-22T04:51:32;3.83;;;1.40;;
16440;SDS011;8330;-33.858;151.184;2023-06-22T04:54:04;4.80;;;1.45;;
16440;SDS011;8330;-33.858;151.184;2023-06-22T04:56:35;7.95;;;1.70;;
16440;SDS011;8330;-33.858;151.184;2023-06-22T04:59:07;3.15;;;1.48;;
16440;SDS011;8330;-33.858;151.184;2023-06-22T05:01:39;5.50;;;1.48;;
16440;SDS011;8330;-33.858;151.184;2023-06-22T05:04:12;3.65;;;1.65;;
16440;SDS011;8330;-33.858;151.184;2023-06-22T05:06:45;2.75;;;1.38;;
16440;SDS011;8330;-33.858;151.184;2023-06-22T05:09:16;5.35;;;1.40;;
16440;SDS011;8330;-33.858;151.184;2023-06-22T05:11:48;4.80;;;1.63;;
16440;SDS011;8330;-33.858;151.184;2023-06-22T05:14:19;4.53;;;1.77;;
16440;SDS011;8330;-33.858;151.184;2023-06-22T05:16:50;5.50;;;1.63;;
16440;SDS011;8330;-33.858;151.184;2023-06-22T05:19:27;4.20;;;1.50;;
16440;SDS011;8330;-33.858;151.184;2023-06-22T05:21:59;2.90;;;1.50;;
16440;SDS011;8330;-33.858;151.184;2023-06-22T05:24:30;3.65;;;1.50;;
16440;SDS011;8330;-33.858;151.184;2023-06-22T05:27:01;4.30;;;1.80;;
16440;SDS011;8330;-33.858;151.184;2023-06-22T05:29:33;3.72;;;1.50;;
16440;SDS011;8330;-33.858;151.184;2023-06-22T05:32:04;4.78;;;1.70;;
16440;SDS011;8330;-33.858;151.184;2023-06-22T05:34:38;5.38;;;1.42;;
16440;SDS011;8330;-33.858;151.184;2023-06-22T05:37:09;5.15;;;1.30;;
16440;SDS011;8330;-33.858;151.184;2023-06-22T05:39:41;5.13;;;1.60;;
16440;SDS011;8330;-33.858;151.184;2023-06-22T05:42:12;4.13;;;1.20;;
16440;SDS011;8330;-33.858;151.184;2023-06-22T05:44:44;3.63;;;1.50;;
16440;SDS011;8330;-33.858;151.184;2023-06-22T05:47:19;2.08;;;1.00;;
16440;SDS011;8330;-33.858;151.184;2023-06-22T05:49:52;4.72;;;1.38;;
16440;SDS011;8330;-33.858;151.184;2023-06-22T05:52:24;3.15;;;1.48;;
16440;SDS011;8330;-33.858;151.184;2023-06-22T05:54:55;2.65;;;1.50;;
16440;SDS011;8330;-33.858;151.184;2023-06-22T05:57:26;3.30;;;1.42;;
16440;SDS011;8330;-33.858;151.184;2023-06-22T05:59:57;1.92;;;1.00;;
16440;SDS011;8330;-33.858;151.184;2023-06-22T06:02:29;5.13;;;1.70;;
16440;SDS011;8330;-33.858;151.184;2023-06-22T06:05:02;5.00;;;1.95;;
16440;SDS011;8330;-33.858;151.184;2023-06-22T06:07:33;4.07;;;1.95;;
16440;SDS011;8330;-33.858;151.184;2023-06-22T06:10:05;5.20;;;1.73;;
16440;SDS011;8330;-33.858;151.184;2023-06-22T06:12:36;5.22;;;1.90;;
16440;SDS011;8330;-33.858;151.184;2023-06-22T06:15:08;5.85;;;2.15;;
16440;SDS011;8330;-33.858;151.184;2023-06-22T06:17:45;5.35;;;2.38;;
16440;SDS011;8330;-33.858;151.184;2023-06-22T06:20:21;5.20;;;2.47;;
16440;SDS011;8330;-33.858;151.184;2023-06-22T06:22:54;7.30;;;2.22;;
16440;SDS011;8330;-33.858;151.184;2023-06-22T06:25:25;5.22;;;2.53;;
16440;SDS011;8330;-33.858;151.184;2023-06-22T06:27:56;4.30;;;2.53;;
16440;SDS011;8330;-33.858;151.184;2023-06-22T06:30:27;5.38;;;2.40;;
16440;SDS011;8330;-33.858;151.184;2023-06-22T06:32:58;4.57;;;2.25;;
16440;SDS011;8330;-33.858;151.184;2023-06-22T06:35:34;7.63;;;2.63;;
16440;SDS011;8330;-33.858;151.184;2023-06-22T06:38:05;6.10;;;2.40;;
16440;SDS011;8330;-33.858;151.184;2023-06-22T06:40:37;6.03;;;2.80;;
16440;SDS011;8330;-33.858;151.184;2023-06-22T06:43:08;5.65;;;2.90;;
16440;SDS011;8330;-33.858;151.184;2023-06-22T06:45:40;6.82;;;2.63;;
16440;SDS011;8330;-33.858;151.184;2023-06-22T06:48:14;8.02;;;2.85;;
16440;SDS011;8330;-33.858;151.184;2023-06-22T06:50:48;7.57;;;3.22;;
16440;SDS011;8330;-33.858;151.184;2023-06-22T06:53:19;7.75;;;3.65;;
16440;SDS011;8330;-33.858;151.184;2023-06-22T06:55:50;6.95;;;3.38;;
16440;SDS011;8330;-33.858;151.184;2023-06-22T06:58:23;5.78;;;3.33;;
16440;SDS011;8330;-33.858;151.184;2023-06-22T07:00:55;7.80;;;3.97;;
16440;SDS011;8330;-33.858;151.184;2023-06-22T07:03:26;9.45;;;4.00;;
16440;SDS011;8330;-33.858;151.184;2023-06-22T07:06:03;8.82;;;4.80;;
16440;SDS011;8330;-33.858;151.184;2023-06-22T07:08:34;10.60;;;4.78;;
16440;SDS011;8330;-33.858;151.184;2023-06-22T07:11:06;9.55;;;4.75;;
16440;SDS011;8330;-33.858;151.184;2023-06-22T07:13:38;9.52;;;4.30;;
16440;SDS011;8330;-33.858;151.184;2023-06-22T07:16:09;8.98;;;4.47;;
16440;SDS011;8330;-33.858;151.184;2023-06-22T07:18:40;15.93;;;5.63;;
16440;SDS011;8330;-33.858;151.184;2023-06-22T07:21:14;18.85;;;13.18;;
16440;SDS011;8330;-33.858;151.184;2023-06-22T07:23:45;20.20;;;13.95;;
16440;SDS011;8330;-33.858;151.184;2023-06-22T07:26:16;14.25;;;10.63;;
16440;SDS011;8330;-33.858;151.184;2023-06-22T07:28:47;9.95;;;5.03;;
16440;SDS011;8330;-33.858;151.184;2023-06-22T07:31:18;9.55;;;4.55;;
16440;SDS011;8330;-33.858;151.184;2023-06-22T07:33:50;9.77;;;4.72;;
16440;SDS011;8330;-33.858;151.184;2023-06-22T07:36:24;10.98;;;4.97;;
16440;SDS011;8330;-33.858;151.184;2023-06-22T07:38:56;6.90;;;4.05;;
16440;SDS011;8330;-33.858;151.184;2023-06-22T07:41:27;9.55;;;4.53;;
16440;SDS011;8330;-33.858;151.184;2023-06-22T07:43:58;8.77;;;5.03;;
16440;SDS011;8330;-33.858;151.184;2023-06-22T07:46:29;10.38;;;4.63;;
16440;SDS011;8330;-33.858;151.184;2023-06-22T07:49:01;5.13;;;4.00;;
16440;SDS011;8330;-33.858;151.184;2023-06-22T07:51:36;7.40;;;4.60;;
16440;SDS011;8330;-33.858;151.184;2023-06-22T07:54:09;7.07;;;4.25;;
16440;SDS011;8330;-33.858;151.184;2023-06-22T07:56:42;6.80;;;4.75;;
16440;SDS011;8330;-33.858;151.184;2023-06-22T07:59:14;8.77;;;5.63;;
16440;SDS011;8330;-33.858;151.184;2023-06-22T08:01:48;11.98;;;6.30;;
16440;SDS011;8330;-33.858;151.184;2023-06-22T08:04:22;10.23;;;6.45;;
16440;SDS011;8330;-33.858;151.184;2023-06-22T08:06:57;8.63;;;6.32;;
16440;SDS011;8330;-33.858;151.184;2023-06-22T08:09:29;10.73;;;5.65;;
16440;SDS011;8330;-33.858;151.184;2023-06-22T08:12:04;7.97;;;5.18;;
16440;SDS011;8330;-33.858;151.184;2023-06-22T08:14:37;9.68;;;5.20;;
16440;SDS011;8330;-33.858;151.184;2023-06-22T08:17:18;8.93;;;5.05;;
16440;SDS011;8330;-33.858;151.184;2023-06-22T08:19:50;8.07;;;5.63;;
16440;SDS011;8330;-33.858;151.184;2023-06-22T08:22:23;10.82;;;5.50;;
16440;SDS011;8330;-33.858;151.184;2023-06-22T08:24:54;8.80;;;5.88;;
16440;SDS011;8330;-33.858;151.184;2023-06-22T08:27:26;9.48;;;5.47;;
16440;SDS011;8330;-33.858;151.184;2023-06-22T08:29:58;21.20;;;14.13;;
16440;SDS011;8330;-33.858;151.184;2023-06-22T08:32:29;18.05;;;13.23;;
16440;SDS011;8330;-33.858;151.184;2023-06-22T08:35:03;11.82;;;7.07;;
16440;SDS011;8330;-33.858;151.184;2023-06-22T08:37:39;10.25;;;5.70;;
16440;SDS011;8330;-33.858;151.184;2023-06-22T08:40:19;13.38;;;10.43;;
16440;SDS011;8330;-33.858;151.184;2023-06-22T08:42:54;13.50;;;6.72;;
16440;SDS011;8330;-33.858;151.184;2023-06-22T08:45:26;14.75;;;5.93;;
16440;SDS011;8330;-33.858;151.184;2023-06-22T08:47:57;8.52;;;5.85;;
16440;SDS011;8330;-33.858;151.184;2023-06-22T08:50:29;9.07;;;5.57;;
16440;SDS011;8330;-33.858;151.184;2023-06-22T08:53:07;8.55;;;5.22;;
16440;SDS011;8330;-33.858;151.184;2023-06-22T08:55:39;9.65;;;4.70;;
16440;SDS011;8330;-33.858;151.184;2023-06-22T08:58:11;8.70;;;4.90;;
16440;SDS011;8330;-33.858;151.184;2023-06-22T09:00:44;10.70;;;6.70;;
16440;SDS011;8330;-33.858;151.184;2023-06-22T09:03:17;9.55;;;5.40;;
16440;SDS011;8330;-33.858;151.184;2023-06-22T09:05:52;11.10;;;4.55;;
16440;SDS011;8330;-33.858;151.184;2023-06-22T09:08:26;6.53;;;4.50;;
16440;SDS011;8330;-33.858;151.184;2023-06-22T09:11:00;8.10;;;4.60;;
16440;SDS011;8330;-33.858;151.184;2023-06-22T09:13:33;11.15;;;5.57;;
16440;SDS011;8330;-33.858;151.184;2023-06-22T09:16:04;8.45;;;5.38;;
16440;SDS011;8330;-33.858;151.184;2023-06-22T09:18:35;9.75;;;6.03;;
16440;SDS011;8330;-33.858;151.184;2023-06-22T09:21:08;9.85;;;5.72;;
16440;SDS011;8330;-33.858;151.184;2023-06-22T09:23:46;9.98;;;6.50;;
16440;SDS011;8330;-33.858;151.184;2023-06-22T09:26:18;11.88;;;6.35;;
16440;SDS011;8330;-33.858;151.184;2023-06-22T09:28:50;9.55;;;5.90;;
16440;SDS011;8330;-33.858;151.184;2023-06-22T09:31:21;9.52;;;6.13;;
16440;SDS011;8330;-33.858;151.184;2023-06-22T09:33:53;10.95;;;5.40;;
16440;SDS011;8330;-33.858;151.184;2023-06-22T09:36:25;9.93;;;6.03;;
16440;SDS011;8330;-33.858;151.184;2023-06-22T09:38:59;9.23;;;5.90;;
16440;SDS011;8330;-33.858;151.184;2023-06-22T09:41:32;10.57;;;6.70;;
16440;SDS011;8330;-33.858;151.184;2023-06-22T09:44:05;8.93;;;5.70;;
16440;SDS011;8330;-33.858;151.184;2023-06-22T09:46:37;10.80;;;5.72;;
16440;SDS011;8330;-33.858;151.184;2023-06-22T09:49:09;9.48;;;5.47;;
16440;SDS011;8330;-33.858;151.184;2023-06-22T09:51:40;11.02;;;7.15;;
16440;SDS011;8330;-33.858;151.184;2023-06-22T09:54:19;13.30;;;7.05;;
16440;SDS011;8330;-33.858;151.184;2023-06-22T09:56:50;8.80;;;6.07;;
16440;SDS011;8330;-33.858;151.184;2023-06-22T09:59:21;9.65;;;6.22;;
16440;SDS011;8330;-33.858;151.184;2023-06-22T10:01:52;11.27;;;6.30;;
16440;SDS011;8330;-33.858;151.184;2023-06-22T10:04:25;11.45;;;6.88;;
16440;SDS011;8330;-33.858;151.184;2023-06-22T10:06:56;8.90;;;6.50;;
16440;SDS011;8330;-33.858;151.184;2023-06-22T10:09:30;13.48;;;7.07;;
16440;SDS011;8330;-33.858;151.184;2023-06-22T10:12:03;11.57;;;7.32;;
16440;SDS011;8330;-33.858;151.184;2023-06-22T10:14:36;9.95;;;6.45;;
16440;SDS011;8330;-33.858;151.184;2023-06-22T10:17:07;9.38;;;5.40;;
16440;SDS011;8330;-33.858;151.184;2023-06-22T10:19:39;11.18;;;5.50;;
16440;SDS011;8330;-33.858;151.184;2023-06-22T10:22:12;10.23;;;5.97;;
16440;SDS011;8330;-33.858;151.184;2023-06-22T10:24:47;9.52;;;6.25;;
16440;SDS011;8330;-33.858;151.184;2023-06-22T10:27:20;8.95;;;6.15;;
16440;SDS011;8330;-33.858;151.184;2023-06-22T10:29:52;8.98;;;6.15;;
16440;SDS011;8330;-33.858;151.184;2023-06-22T10:32:24;11.40;;;6.38;;
16440;SDS011;8330;-33.858;151.184;2023-06-22T10:34:57;8.60;;;6.07;;
16440;SDS011;8330;-33.858;151.184;2023-06-22T10:37:28;11.35;;;6.07;;
16440;SDS011;8330;-33.858;151.184;2023-06-22T10:40:01;12.13;;;5.55;;
16440;SDS011;8330;-33.858;151.184;2023-06-22T10:42:34;9.27;;;6.03;;
16440;SDS011;8330;-33.858;151.184;2023-06-22T10:45:05;11.35;;;6.88;;
16440;SDS011;8330;-33.858;151.184;2023-06-22T10:47:37;13.93;;;7.05;;
16440;SDS011;8330;-33.858;151.184;2023-06-22T10:50:09;12.57;;;7.47;;
16440;SDS011;8330;-33.858;151.184;2023-06-22T10:52:40;13.43;;;8.10;;
16440;SDS011;8330;-33.858;151.184;2023-06-22T10:55:13;13.43;;;7.82;;
16440;SDS011;8330;-33.858;151.184;2023-06-22T10:57:44;11.27;;;7.50;;
16440;SDS011;8330;-33.858;151.184;2023-06-22T11:00:16;16.10;;;7.20;;
16440;SDS011;8330;-33.858;151.184;2023-06-22T11:02:47;11.82;;;7.97;;
16440;SDS011;8330;-33.858;151.184;2023-06-22T11:05:18;10.60;;;7.53;;
16440;SDS011;8330;-33.858;151.184;2023-06-22T11:07:50;10.55;;;7.30;;
16440;SDS011;8330;-33.858;151.184;2023-06-22T11:10:23;13.57;;;8.13;;
16440;SDS011;8330;-33.858;151.184;2023-06-22T11:12:54;14.98;;;8.23;;
16440;SDS011;8330;-33.858;151.184;2023-06-22T11:15:25;15.68;;;8.93;;
16440;SDS011;8330;-33.858;151.184;2023-06-22T11:17:57;13.55;;;7.80;;
16440;SDS011;8330;-33.858;151.184;2023-06-22T11:20:31;13.55;;;7.57;;
16440;SDS011;8330;-33.858;151.184;2023-06-22T11:23:05;13.23;;;7.35;;
16440;SDS011;8330;-33.858;151.184;2023-06-22T11:25:38;15.27;;;7.38;;
16440;SDS011;8330;-33.858;151.184;2023-06-22T11:28:09;9.27;;;7.22;;
16440;SDS011;8330;-33.858;151.184;2023-06-22T11:30:40;13.25;;;7.93;;
16440;SDS011;8330;-33.858;151.184;2023-06-22T11:33:14;14.30;;;8.80;;
16440;SDS011;8330;-33.858;151.184;2023-06-22T11:35:45;12.45;;;7.40;;
16440;SDS011;8330;-33.858;151.184;2023-06-22T11:38:16;13.35;;;7.70;;
16440;SDS011;8330;-33.858;151.184;2023-06-22T11:40:51;14.07;;;8.07;;
16440;SDS011;8330;-33.858;151.184;2023-06-22T11:43:22;14.88;;;7.88;;
16440;SDS011;8330;-33.858;151.184;2023-06-22T11:45:53;12.88;;;8.27;;
16440;SDS011;8330;-33.858;151.184;2023-06-22T11:48:24;14.23;;;7.93;;
16440;SDS011;8330;-33.858;151.184;2023-06-22T11:50:55;12.65;;;7.90;;
16440;SDS011;8330;-33.858;151.184;2023-06-22T11:53:26;12.25;;;8.02;;
16440;SDS011;8330;-33.858;151.184;2023-06-22T11:56:00;11.70;;;7.78;;
16440;SDS011;8330;-33.858;151.184;2023-06-22T11:58:31;10.60;;;7.10;;
16440;SDS011;8330;-33.858;151.184;2023-06-22T12:01:02;13.75;;;7.75;;
16440;SDS011;8330;-33.858;151.184;2023-06-22T12:03:33;11.57;;;7.25;;
16440;SDS011;8330;-33.858;151.184;2023-06-22T12:06:05;11.45;;;6.53;;
16440;SDS011;8330;-33.858;151.184;2023-06-22T12:08:37;9.15;;;6.82;;
16440;SDS011;8330;-33.858;151.184;2023-06-22T12:11:10;10.68;;;6.88;;
16440;SDS011;8330;-33.858;151.184;2023-06-22T12:13:41;10.80;;;6.60;;
16440;SDS011;8330;-33.858;151.184;2023-06-22T12:16:13;9.27;;;6.78;;
16440;SDS011;8330;-33.858;151.184;2023-06-22T12:18:44;8.52;;;7.00;;
16440;SDS011;8330;-33.858;151.184;2023-06-22T12:21:16;9.15;;;6.63;;
16440;SDS011;8330;-33.858;151.184;2023-06-22T12:23:47;10.70;;;7.68;;
16440;SDS011;8330;-33.858;151.184;2023-06-22T12:26:20;9.82;;;7.00;;
16440;SDS011;8330;-33.858;151.184;2023-06-22T12:28:52;10.18;;;7.13;;
16440;SDS011;8330;-33.858;151.184;2023-06-22T12:31:23;13.80;;;6.88;;
16440;SDS011;8330;-33.858;151.184;2023-06-22T12:33:54;13.70;;;8.00;;
16440;SDS011;8330;-33.858;151.184;2023-06-22T12:36:25;12.25;;;7.70;;
16440;SDS011;8330;-33.858;151.184;2023-06-22T12:38:56;9.52;;;6.88;;
16440;SDS011;8330;-33.858;151.184;2023-06-22T12:41:31;9.77;;;7.68;;
16440;SDS011;8330;-33.858;151.184;2023-06-22T12:44:02;9.63;;;7.60;;
16440;SDS011;8330;-33.858;151.184;2023-06-22T12:46:33;11.70;;;6.85;;
16440;SDS011;8330;-33.858;151.184;2023-06-22T12:49:06;9.65;;;6.68;;
16440;SDS011;8330;-33.858;151.184;2023-06-22T12:51:39;10.43;;;6.90;;
16440;SDS011;8330;-33.858;151.184;2023-06-22T12:54:11;11.00;;;6.68;;
16440;SDS011;8330;-33.858;151.184;2023-06-22T12:56:45;7.35;;;6.15;;
16440;SDS011;8330;-33.858;151.184;2023-06-22T12:59:17;7.05;;;5.28;;
16440;SDS011;8330;-33.858;151.184;2023-06-22T13:01:55;5.55;;;4.82;;
16440;SDS011;8330;-33.858;151.184;2023-06-22T13:04:27;7.25;;;4.45;;
16440;SDS011;8330;-33.858;151.184;2023-06-22T13:07:02;7.15;;;5.03;;
16440;SDS011;8330;-33.858;151.184;2023-06-22T13:09:45;8.38;;;5.10;;
16440;SDS011;8330;-33.858;151.184;2023-06-22T13:12:20;6.07;;;4.88;;
16440;SDS011;8330;-33.858;151.184;2023-06-22T13:14:51;7.40;;;4.80;;
16440;SDS011;8330;-33.858;151.184;2023-06-22T13:17:22;7.65;;;4.90;;
16440;SDS011;8330;-33.858;151.184;2023-06-22T13:19:58;5.78;;;4.63;;
16440;SDS011;8330;-33.858;151.184;2023-06-22T13:22:31;8.07;;;5.10;;
16440;SDS011;8330;-33.858;151.184;2023-06-22T13:25:09;5.63;;;4.53;;
16440;SDS011;8330;-33.858;151.184;2023-06-22T13:27:48;6.47;;;4.45;;
16440;SDS011;8330;-33.858;151.184;2023-06-22T13:30:19;7.03;;;4.32;;
16440;SDS011;8330;-33.858;151.184;2023-06-22T13:32:52;7.35;;;4.35;;
16440;SDS011;8330;-33.858;151.184;2023-06-22T13:35:23;6.00;;;4.28;;
16440;SDS011;8330;-33.858;151.184;2023-06-22T13:37:58;5.10;;;4.20;;
16440;SDS011;8330;-33.858;151.184;2023-06-22T13:40:32;5.97;;;4.20;;
16440;SDS011;8330;-33.858;151.184;2023-06-22T13:43:06;6.28;;;4.32;;
16440;SDS011;8330;-33.858;151.184;2023-06-22T13:45:39;5.03;;;4.53;;
16440;SDS011;8330;-33.858;151.184;2023-06-22T13:48:10;5.07;;;4.22;;
16440;SDS011;8330;-33.858;151.184;2023-06-22T13:50:41;5.20;;;4.45;;
16440;SDS011;8330;-33.858;151.184;2023-06-22T13:53:13;7.22;;;4.85;;
16440;SDS011;8330;-33.858;151.184;2023-06-22T13:55:44;5.43;;;4.40;;
16440;SDS011;8330;-33.858;151.184;2023-06-22T13:58:20;7.72;;;4.53;;
16440;SDS011;8330;-33.858;151.184;2023-06-22T14:00:51;5.93;;;4.32;;
16440;SDS011;8330;-33.858;151.184;2023-06-22T14:03:22;5.88;;;4.95;;
16440;SDS011;8330;-33.858;151.184;2023-06-22T14:05:53;5.60;;;4.18;;
16440;SDS011;8330;-33.858;151.184;2023-06-22T14:08:24;4.60;;;3.70;;
16440;SDS011;8330;-33.858;151.184;2023-06-22T14:10:56;7.93;;;4.07;;
16440;SDS011;8330;-33.858;151.184;2023-06-22T14:13:30;8.10;;;3.30;;
16440;SDS011;8330;-33.858;151.184;2023-06-22T14:16:13;3.50;;;2.47;;
16440;SDS011;8330;-33.858;151.184;2023-06-22T14:18:45;4.35;;;2.75;;
16440;SDS011;8330;-33.858;151.184;2023-06-22T14:21:16;5.93;;;2.40;;
16440;SDS011;8330;-33.858;151.184;2023-06-22T14:23:47;5.20;;;2.80;;
16440;SDS011;8330;-33.858;151.184;2023-06-22T14:26:18;4.03;;;2.45;;
16440;SDS011;8330;-33.858;151.184;2023-06-22T14:28:52;3.55;;;2.30;;
16440;SDS011;8330;-33.858;151.184;2023-06-22T14:31:23;3.92;;;2.30;;
16440;SDS011;8330;-33.858;151.184;2023-06-22T14:33:55;2.78;;;2.40;;
16440;SDS011;8330;-33.858;151.184;2023-06-22T14:36:26;3.95;;;2.17;;
16440;SDS011;8330;-33.858;151.184;2023-06-22T14:38:57;4.75;;;2.60;;
16440;SDS011;8330;-33.858;151.184;2023-06-22T14:41:28;3.25;;;2.20;;
16440;SDS011;8330;-33.858;151.184;2023-06-22T14:44:02;2.90;;;2.17;;
16440;SDS011;8330;-33.858;151.184;2023-06-22T14:46:33;4.53;;;2.30;;
16440;SDS011;8330;-33.858;151.184;2023-06-22T14:49:04;3.05;;;2.28;;
16440;SDS011;8330;-33.858;151.184;2023-06-22T14:51:36;4.72;;;2.40;;
16440;SDS011;8330;-33.858;151.184;2023-06-22T14:54:07;3.45;;;2.40;;